Time;durP1;ratioP1;P1;durP2;ratioP2;P2;SDS_P1;SDS_P2;PMS_P1;PMS_P2;Temp;Humidity;BMP_temperature;BMP_pressure;BME280_temperature;BME280_humidity;BME280_pressure;Samples;Min_cycle;Max_cycle;Signal;HPM_P1;HPM_P2
2020/12/11 00:02:08;;;;;;;20.73;10.65;;;;;;;-7.83;90.83;101361.22;5108758;28;20075;-67
2020/12/11 00:04:54;;;;;;;23.83;11.75;;;;;;;-7.78;91.53;101364.69;5109286;28;20051;-71
2020/12/11 00:07:42;;;;;;;22.30;10.80;;;;;;;-7.78;91.52;101357.09;5110299;28;20097;-72
2020/12/11 00:10:29;;;;;;;26.10;10.90;;;;;;;-7.79;91.46;101356.19;5109841;28;20108;-72
2020/12/11 00:13:15;;;;;;;22.50;10.82;;;;;;;-7.79;91.76;101353.66;5110706;28;20044;-71
2020/12/11 00:16:01;;;;;;;27.80;11.73;;;;;;;-7.84;91.53;101344.25;5109582;28;20571;-73
2020/12/11 00:18:48;;;;;;;25.95;10.95;;;;;;;-7.85;91.70;101342.53;5110054;28;20387;-70
2020/12/11 00:21:44;;;;;;;27.30;10.90;;;;;;;-7.88;91.77;101330.66;5110173;28;20044;-70
2020/12/11 00:24:30;;;;;;;23.95;11.68;;;;;;;-7.85;92.34;101332.38;5107871;28;20050;-72
2020/12/11 00:27:17;;;;;;;23.75;10.50;;;;;;;-7.82;92.00;101335.84;5109938;28;20054;-71
2020/12/11 00:30:04;;;;;;;22.92;11.35;;;;;;;-7.82;91.55;101330.78;5109555;28;20060;-69
2020/12/11 00:32:51;;;;;;;20.20;10.52;;;;;;;-7.80;91.62;101336.72;5110271;28;20036;-70
2020/12/11 00:35:37;;;;;;;26.15;12.57;;;;;;;-7.76;92.00;101341.03;5109926;28;20124;-71
2020/12/11 00:38:24;;;;;;;29.90;11.05;;;;;;;-7.76;91.46;101342.72;5109543;28;20048;-70
2020/12/11 00:41:10;;;;;;;21.75;10.45;;;;;;;-7.78;91.88;101336.78;5109487;28;20040;-72
2020/12/11 00:43:56;;;;;;;23.33;11.00;;;;;;;-7.82;92.11;101343.47;5109630;28;20109;-70
2020/12/11 00:46:43;;;;;;;25.17;11.43;;;;;;;-7.81;92.01;101332.47;5109566;28;20108;-67
2020/12/11 00:49:30;;;;;;;23.83;11.38;;;;;;;-7.82;91.94;101329.91;5109604;28;20570;-72
2020/12/11 00:52:17;;;;;;;31.23;12.57;;;;;;;-7.82;91.51;101322.31;5094908;28;20051;-72
2020/12/11 00:55:08;;;;;;;23.20;11.35;;;;;;;-7.84;91.49;101318.84;5095299;28;20134;-68
2020/12/11 00:57:55;;;;;;;21.83;10.75;;;;;;;-7.82;92.19;101318.06;5105915;28;20055;-68
2020/12/11 01:00:42;;;;;;;28.08;11.30;;;;;;;-7.85;91.44;101318.00;5106937;28;20051;-70
2020/12/11 01:03:28;;;;;;;27.70;11.07;;;;;;;-7.87;91.65;101313.75;5107248;28;20104;-69
2020/12/11 01:06:15;;;;;;;22.85;10.00;;;;;;;-7.83;91.99;101310.44;5108699;28;20067;-68
2020/12/11 01:09:01;;;;;;;24.55;11.50;;;;;;;-7.83;91.82;101303.69;5110147;28;20047;-69
2020/12/11 01:11:48;;;;;;;25.58;11.80;;;;;;;-7.86;91.46;101311.22;5109027;28;20522;-69
2020/12/11 01:14:34;;;;;;;25.08;11.07;;;;;;;-7.87;92.17;101306.13;5109649;28;20048;-71
2020/12/11 01:17:20;;;;;;;22.20;10.45;;;;;;;-7.85;92.27;101307.84;5094658;28;20140;-69
2020/12/11 01:20:07;;;;;;;23.58;10.85;;;;;;;-7.86;92.46;101303.59;5108965;28;20056;-71
2020/12/11 01:22:53;;;;;;;18.35;9.93;;;;;;;-7.85;92.05;101284.16;5109235;28;20051;-71
2020/12/11 01:25:40;;;;;;;18.58;7.72;;;;;;;-7.80;92.30;101282.56;5109471;28;20051;-69
2020/12/11 01:28:27;;;;;;;19.90;9.27;;;;;;;-7.83;91.73;101285.91;5106270;28;20074;-69
2020/12/11 01:31:20;;;;;;;22.65;10.27;;;;;;;-7.82;92.39;101282.53;5109173;28;20043;-69
2020/12/11 01:34:06;;;;;;;19.27;9.65;;;;;;;-7.80;91.93;101272.41;5108601;28;20139;-69
2020/12/11 01:36:53;;;;;;;20.42;10.02;;;;;;;-7.76;91.93;101269.94;5108054;28;20437;-71
2020/12/11 01:39:39;;;;;;;18.48;8.40;;;;;;;-7.75;91.81;101273.34;5107552;28;20059;-71
2020/12/11 01:42:26;;;;;;;22.27;10.80;;;;;;;-7.71;92.12;101271.72;5109108;28;20482;-71
2020/12/11 01:45:12;;;;;;;21.27;10.18;;;;;;;-7.71;91.71;101274.25;5108585;28;20071;-69
2020/12/11 01:47:58;;;;;;;24.23;10.65;;;;;;;-7.67;92.32;101266.72;5108598;28;20148;-72
2020/12/11 01:50:45;;;;;;;20.40;9.60;;;;;;;-7.69;92.15;101268.41;5109152;28;20051;-70
2020/12/11 01:53:31;;;;;;;19.67;10.25;;;;;;;-7.65;92.18;101269.28;5094926;28;20039;-70
2020/12/11 01:56:20;;;;;;;25.05;11.45;;;;;;;-7.61;92.31;101265.97;5108969;28;20109;-71
2020/12/11 01:59:12;;;;;;;18.85;10.77;;;;;;;-7.63;92.17;101257.50;5107617;28;20052;-71
2020/12/11 02:02:00;;;;;;;23.98;9.98;;;;;;;-7.58;92.34;101261.81;5106308;28;20091;-72
2020/12/11 02:04:47;;;;;;;24.77;10.75;;;;;;;-7.58;91.99;101264.34;5106596;28;20048;-70
2020/12/11 02:07:38;;;;;;;21.55;11.27;;;;;;;-7.59;91.81;101260.13;5108273;28;20043;-71
2020/12/11 02:10:25;;;;;;;25.17;10.70;;;;;;;-7.65;92.15;101259.97;5108403;28;20488;-68
2020/12/11 02:13:12;;;;;;;23.30;10.90;;;;;;;-7.60;92.73;101257.53;5108728;28;20122;-69
2020/12/11 02:15:59;;;;;;;25.38;11.82;;;;;;;-7.64;92.15;101260.84;5093274;28;20498;-70
2020/12/11 02:18:45;;;;;;;24.05;11.00;;;;;;;-7.61;92.82;101255.81;5108514;28;20059;-69
2020/12/11 02:21:32;;;;;;;24.27;11.55;;;;;;;-7.58;92.62;101249.13;5108890;28;20132;-73
2020/12/11 02:24:18;;;;;;;23.90;10.93;;;;;;;-7.56;92.78;101257.63;5108577;28;20059;-70
2020/12/11 02:27:05;;;;;;;25.38;11.68;;;;;;;-7.52;93.26;101256.84;5108131;28;20101;-71
2020/12/11 02:29:52;;;;;;;26.08;11.65;;;;;;;-7.46;93.21;101256.09;5108512;28;20044;-69
2020/12/11 02:32:40;;;;;;;26.63;10.75;;;;;;;-7.44;93.32;101246.81;5111122;28;20143;-70
2020/12/11 02:35:26;;;;;;;29.50;12.00;;;;;;;-7.42;93.55;101246.84;5112038;28;20135;-68
2020/12/11 02:38:14;;;;;;;26.02;12.05;;;;;;;-7.41;93.17;101238.38;5111657;28;20063;-68
2020/12/11 02:41:02;;;;;;;30.42;12.40;;;;;;;-7.39;92.91;101242.69;5109318;28;20047;-71
2020/12/11 02:43:48;;;;;;;26.80;11.90;;;;;;;-7.42;93.05;101232.47;5111787;28;20498;-70
2020/12/11 02:46:35;;;;;;;21.55;9.93;;;;;;;-7.41;92.91;101228.22;5107931;28;20596;-69
2020/12/11 02:49:21;;;;;;;27.67;11.63;;;;;;;-7.41;93.04;101234.16;5109106;28;20055;-68
2020/12/11 02:52:08;;;;;;;21.85;9.75;;;;;;;-7.43;93.21;101234.97;5109087;28;20047;-72
2020/12/11 02:54:54;;;;;;;23.77;11.32;;;;;;;-7.40;92.99;101230.81;5109333;28;20089;-71
2020/12/11 02:57:40;;;;;;;34.60;11.93;;;;;;;-7.39;93.01;101229.97;5097067;28;20055;-72
2020/12/11 03:00:27;;;;;;;26.92;10.73;;;;;;;-7.38;93.29;101215.59;5109418;28;20104;-70
2020/12/11 03:03:13;;;;;;;22.15;10.10;;;;;;;-7.34;93.42;101219.91;5111346;28;20101;-72
2020/12/11 03:06:00;;;;;;;23.83;11.48;;;;;;;-7.39;92.99;101227.44;5110889;28;20059;-68
2020/12/11 03:08:46;;;;;;;37.75;12.80;;;;;;;-7.37;93.34;101227.44;5111697;28;20050;-70
2020/12/11 03:11:32;;;;;;;33.15;12.00;;;;;;;-7.40;92.98;101229.97;5109156;28;20055;-68
2020/12/11 03:14:19;;;;;;;37.72;14.38;;;;;;;-7.38;93.31;101233.38;5111631;28;20126;-71
2020/12/11 03:17:05;;;;;;;45.78;13.15;;;;;;;-7.42;93.61;101226.53;5111269;28;20059;-69
2020/12/11 03:19:52;;;;;;;30.85;11.82;;;;;;;-7.38;93.56;101226.59;5111316;28;20432;-71
2020/12/11 03:22:38;;;;;;;25.25;11.18;;;;;;;-7.41;93.52;101224.00;5111569;28;20472;-70
2020/12/11 03:25:25;;;;;;;28.27;11.95;;;;;;;-7.36;93.52;101224.06;5111485;28;20048;-68
2020/12/11 03:28:11;;;;;;;29.98;10.98;;;;;;;-7.34;93.58;101219.91;5110707;28;20418;-70
2020/12/11 03:30:59;;;;;;;30.42;11.70;;;;;;;-7.34;93.63;101219.91;5111188;28;20101;-68
2020/12/11 03:33:45;;;;;;;32.70;12.30;;;;;;;-7.37;93.63;101212.22;5107986;28;20101;-67
2020/12/11 03:36:32;;;;;;;39.38;14.00;;;;;;;-7.37;93.91;101218.16;5070349;28;20734;-69
2020/12/11 03:39:18;;;;;;;44.70;14.18;;;;;;;-7.38;93.88;101210.50;5069295;28;20056;-70
2020/12/11 03:42:05;;;;;;;45.72;14.27;;;;;;;-7.35;93.44;101210.56;5070011;28;20549;-68
2020/12/11 03:44:51;;;;;;;30.13;11.57;;;;;;;-7.39;93.08;101206.25;5068907;28;20080;-69
2020/12/11 03:47:40;;;;;;;34.33;13.02;;;;;;;-7.38;93.14;101207.97;5070127;28;20129;-70
2020/12/11 03:50:26;;;;;;;37.08;13.30;;;;;;;-7.48;93.20;101207.81;5070006;28;20051;-70
2020/12/11 03:53:13;;;;;;;33.55;12.40;;;;;;;-7.57;93.41;101211.88;5070257;28;20392;-69
2020/12/11 03:55:59;;;;;;;27.98;11.88;;;;;;;-7.49;93.73;101212.88;5055024;28;20041;-70
2020/12/11 03:58:46;;;;;;;25.80;10.43;;;;;;;-7.49;93.39;101203.56;5069877;28;20064;-71
2020/12/11 04:01:33;;;;;;;25.65;9.90;;;;;;;-7.47;93.04;101206.97;5069618;28;20142;-70
2020/12/11 04:04:19;;;;;;;26.70;11.15;;;;;;;-7.43;93.95;101202.81;5070111;28;20715;-68
2020/12/11 04:07:06;;;;;;;36.30;12.57;;;;;;;-7.46;93.29;101210.38;5069071;28;20530;-70
2020/12/11 04:09:52;;;;;;;27.52;11.30;;;;;;;-7.54;93.24;101200.09;5069763;28;20440;-68
2020/12/11 04:12:39;;;;;;;25.45;10.43;;;;;;;-7.47;93.35;101211.19;5069531;28;20098;-67
2020/12/11 04:15:25;;;;;;;34.97;11.80;;;;;;;-7.46;93.03;101212.91;5069859;28;20106;-70
2020/12/11 04:18:11;;;;;;;28.48;12.38;;;;;;;-7.41;93.82;101207.91;5069390;28;20056;-74
2020/12/11 04:20:58;;;;;;;28.38;11.63;;;;;;;-7.39;93.71;101199.50;5069899;28;20140;-69
2020/12/11 04:23:45;;;;;;;32.40;12.48;;;;;;;-7.36;93.55;101201.22;5069316;28;20040;-67
2020/12/11 04:26:31;;;;;;;27.15;12.07;;;;;;;-7.34;93.58;101209.72;5083294;28;20052;-71
2020/12/11 04:29:17;;;;;;;26.83;11.68;;;;;;;-7.30;93.38;101206.41;5069020;28;20056;-70
2020/12/11 04:32:04;;;;;;;29.50;12.35;;;;;;;-7.26;93.46;101211.56;5069482;28;20044;-69
2020/12/11 04:34:51;;;;;;;27.02;11.13;;;;;;;-7.22;93.23;101207.38;5080687;28;20050;-67
2020/12/11 04:37:37;;;;;;;31.30;12.95;;;;;;;-7.22;93.20;101203.13;5107206;28;20062;-69
2020/12/11 04:40:23;;;;;;;37.58;14.90;;;;;;;-7.24;93.36;101202.28;5106613;28;20450;-68
2020/12/11 04:43:12;;;;;;;40.63;15.77;;;;;;;-7.18;92.90;101198.13;5107335;28;20500;-69
2020/12/11 04:46:00;;;;;;;39.92;16.75;;;;;;;-7.19;93.09;101196.41;5104312;28;20055;-70
2020/12/11 04:48:47;;;;;;;40.90;15.13;;;;;;;-7.18;92.74;101196.44;5106656;28;20052;-69
2020/12/11 04:51:35;;;;;;;41.33;15.30;;;;;;;-7.17;92.73;101199.81;5107068;28;20050;-68
2020/12/11 04:54:22;;;;;;;37.08;13.98;;;;;;;-7.19;92.96;101204.03;5106831;28;20048;-71
2020/12/11 04:57:09;;;;;;;23.48;9.98;;;;;;;-7.18;92.95;101203.19;5091741;28;20050;-69
2020/12/11 04:59:56;;;;;;;29.10;11.35;;;;;;;-7.13;93.17;101209.19;5106789;28;21454;-70
2020/12/11 05:02:43;;;;;;;34.28;12.70;;;;;;;-7.11;92.53;101210.09;5107138;28;20524;-70
2020/12/11 05:05:30;;;;;;;22.83;10.07;;;;;;;-7.09;93.03;101216.91;5106751;28;20429;-70
2020/12/11 05:08:21;;;;;;;34.88;12.73;;;;;;;-7.05;92.80;101215.28;5106516;28;20120;-68
2020/12/11 05:11:07;;;;;;;28.48;11.65;;;;;;;-7.04;92.77;101215.28;5106806;28;20055;-68
2020/12/11 05:13:54;;;;;;;28.23;11.68;;;;;;;-7.00;93.16;101216.19;5105086;28;20055;-69
2020/12/11 05:16:53;;;;;;;19.77;10.45;;;;;;;-6.99;92.87;101208.56;5106287;28;20075;-69
2020/12/11 05:19:51;;;;;;;33.17;13.45;;;;;;;-6.99;94.92;101210.28;5106778;28;20035;-70
2020/12/11 05:22:40;;;;;;;35.38;13.15;;;;;;;-6.93;93.66;101204.41;5106358;28;20055;-67
2020/12/11 05:25:29;;;;;;;22.80;10.60;;;;;;;-6.87;93.67;101200.28;5105786;28;20052;-69
2020/12/11 05:28:15;;;;;;;33.05;13.77;;;;;;;-6.81;93.50;101195.28;5106619;28;20059;-69
2020/12/11 05:31:06;;;;;;;29.52;12.52;;;;;;;-6.76;93.83;101188.56;5106142;28;20487;-68
2020/12/11 05:34:12;;;;;;;31.20;14.95;;;;;;;-6.68;93.59;101198.84;5105982;28;20040;-72
2020/12/11 05:36:58;;;;;;;22.48;10.68;;;;;;;-6.64;93.76;101195.53;5105932;28;20104;-68
2020/12/11 05:39:45;;;;;;;24.73;11.25;;;;;;;-6.57;93.73;101196.44;5106178;28;20079;-72
2020/12/11 05:42:31;;;;;;;20.10;10.30;;;;;;;-6.53;93.77;101193.13;5106082;28;20052;-69
2020/12/11 05:45:18;;;;;;;20.90;9.40;;;;;;;-6.48;93.78;101191.47;5106364;28;20487;-70
2020/12/11 05:48:06;;;;;;;21.02;9.68;;;;;;;-6.45;94.06;101194.06;5091427;28;20116;-69
2020/12/11 05:50:53;;;;;;;23.88;11.18;;;;;;;-6.38;94.21;101190.75;5106208;28;20070;-70
2020/12/11 05:53:39;;;;;;;24.35;11.45;;;;;;;-6.39;93.44;101178.88;5105678;28;20052;-73
2020/12/11 05:56:27;;;;;;;22.65;10.10;;;;;;;-6.36;93.63;101175.50;5104643;28;20040;-70
2020/12/11 05:59:14;;;;;;;21.77;9.32;;;;;;;-6.33;93.90;101175.53;5105540;28;20091;-71
2020/12/11 06:02:02;;;;;;;26.63;10.93;;;;;;;-6.36;93.32;101166.19;5104532;28;20506;-71
2020/12/11 06:04:49;;;;;;;19.75;9.32;;;;;;;-6.36;93.18;101178.03;5106989;28;20179;-69
2020/12/11 06:07:41;;;;;;;16.00;7.57;;;;;;;-6.41;92.78;101180.53;5109574;28;20047;-71
2020/12/11 06:10:27;;;;;;;18.80;8.57;;;;;;;-6.46;92.47;101179.63;5110754;28;20444;-72
2020/12/11 06:13:14;;;;;;;17.83;8.98;;;;;;;-6.52;92.23;101172.78;5110740;28;20048;-69
2020/12/11 06:16:03;;;;;;;15.20;7.78;;;;;;;-6.57;92.09;101181.19;5110890;28;20832;-71
2020/12/11 06:18:59;;;;;;;19.67;9.25;;;;;;;-6.59;92.27;101176.09;5110094;28;20068;-69
2020/12/11 06:21:46;;;;;;;13.90;6.82;;;;;;;-6.63;92.08;101173.50;5110912;28;20056;-70
2020/12/11 06:24:34;;;;;;;17.58;7.75;;;;;;;-6.66;92.44;101169.19;5109230;28;20051;-69
2020/12/11 06:27:31;;;;;;;24.73;11.57;;;;;;;-6.72;92.13;101167.44;5110482;28;20040;-68
2020/12/11 06:30:24;;;;;;;19.85;10.00;;;;;;;-6.73;92.60;101164.88;5110391;28;20044;-69
2020/12/11 06:33:11;;;;;;;21.33;9.48;;;;;;;-6.79;92.42;101165.66;5108617;28;20561;-69
2020/12/11 06:35:59;;;;;;;19.88;8.05;;;;;;;-6.83;92.59;101156.28;5110458;28;20448;-70
2020/12/11 06:38:49;;;;;;;20.33;9.07;;;;;;;-6.81;93.02;101163.91;5110845;28;20154;-69
2020/12/11 06:41:39;;;;;;;21.65;10.32;;;;;;;-6.84;93.06;101171.50;5110602;28;20159;-71
2020/12/11 06:44:30;;;;;;;25.02;10.43;;;;;;;-6.77;93.35;101168.22;5110520;28;20698;-72
2020/12/11 06:47:18;;;;;;;22.85;10.25;;;;;;;-6.74;93.49;101170.78;5109921;28;20109;-69
2020/12/11 06:50:06;;;;;;;20.23;9.30;;;;;;;-6.73;93.39;101163.19;5109669;28;20058;-71
2020/12/11 06:52:53;;;;;;;20.55;8.90;;;;;;;-6.66;94.97;101161.56;5110561;28;20046;-69
2020/12/11 06:55:49;;;;;;;20.13;8.77;;;;;;;-6.59;95.00;101163.38;5111033;28;20077;-71
2020/12/11 06:58:36;;;;;;;20.83;9.50;;;;;;;-6.49;95.37;101172.81;5108071;28;20055;-71
2020/12/11 07:01:22;;;;;;;17.35;10.65;;;;;;;-6.43;95.08;101172.03;5110810;28;20074;-68
2020/12/11 07:04:09;;;;;;;19.38;9.48;;;;;;;-6.37;95.49;101174.66;5110138;28;20116;-70
2020/12/11 07:06:55;;;;;;;18.33;8.98;;;;;;;-6.30;95.16;101173.03;5109695;28;20105;-70
2020/12/11 07:09:45;;;;;;;19.70;8.48;;;;;;;-6.23;94.80;101172.25;5110083;28;20058;-72
2020/12/11 07:12:32;;;;;;;18.63;8.52;;;;;;;-6.17;95.47;101174.91;5110200;28;20055;-68
2020/12/11 07:15:19;;;;;;;17.58;9.20;;;;;;;-6.16;95.42;101175.75;5107201;28;20047;-69
2020/12/11 07:18:16;;;;;;;19.85;8.82;;;;;;;-6.11;95.87;101182.59;5109352;28;21116;-68
2020/12/11 07:21:03;;;;;;;20.40;9.27;;;;;;;-6.06;95.21;101180.09;5109569;28;20555;-70
2020/12/11 07:23:49;;;;;;;17.50;8.65;;;;;;;-6.02;95.24;101194.56;5109528;28;20147;-72
2020/12/11 07:26:36;;;;;;;18.25;9.13;;;;;;;-6.00;95.09;101186.09;5109572;28;20446;-68
2020/12/11 07:29:22;;;;;;;14.38;8.63;;;;;;;-5.96;95.40;101187.84;5108736;28;20036;-69
2020/12/11 07:32:09;;;;;;;21.40;10.23;;;;;;;-5.92;95.48;101183.66;5109474;28;20075;-70
2020/12/11 07:34:55;;;;;;;22.10;9.05;;;;;;;-5.89;95.60;101192.97;5093455;28;20048;-71
2020/12/11 07:37:55;;;;;;;20.98;11.07;;;;;;;-5.88;96.01;101187.06;5106698;28;20071;-70
2020/12/11 07:40:42;;;;;;;20.27;9.85;;;;;;;-5.87;95.68;101178.56;5105376;28;20074;-71
2020/12/11 07:43:28;;;;;;;26.95;9.65;;;;;;;-5.91;96.57;101171.75;5109195;28;20044;-69
2020/12/11 07:46:24;;;;;;;20.27;9.90;;;;;;;-5.83;96.05;101173.53;5108864;28;20048;-69
2020/12/11 07:49:11;;;;;;;21.77;9.45;;;;;;;-5.81;96.71;101179.47;5108130;28;20052;-68
2020/12/11 07:51:57;;;;;;;20.60;9.10;;;;;;;-5.79;96.00;101172.72;5106590;28;20116;-69
2020/12/11 07:54:43;;;;;;;21.35;9.15;;;;;;;-5.75;95.83;101171.88;5109148;28;20139;-69
2020/12/11 07:57:30;;;;;;;17.90;9.07;;;;;;;-5.70;95.45;101174.47;5108810;28;20044;-71
2020/12/11 08:00:17;;;;;;;22.85;10.13;;;;;;;-5.71;96.69;101178.72;5108339;28;20403;-70
2020/12/11 08:03:08;;;;;;;20.35;8.77;;;;;;;-5.68;96.41;101171.13;5107890;28;20052;-71
2020/12/11 08:05:55;;;;;;;20.25;9.13;;;;;;;-5.66;96.13;101171.97;5106356;28;20054;-69
2020/12/11 08:08:41;;;;;;;21.15;9.52;;;;;;;-5.64;96.04;101172.00;5102506;28;20051;-73
2020/12/11 08:11:28;;;;;;;18.92;8.30;;;;;;;-5.63;96.45;101175.41;5091763;28;20050;-69
2020/12/11 08:14:14;;;;;;;19.77;8.05;;;;;;;-5.64;96.00;101169.44;5106217;28;20097;-71
2020/12/11 08:17:01;;;;;;;20.58;8.00;;;;;;;-5.66;95.81;101166.03;5103805;28;20138;-71
2020/12/11 08:19:57;;;;;;;16.02;7.25;;;;;;;-5.67;95.79;101171.97;5106469;28;20047;-70
2020/12/11 08:22:44;;;;;;;14.88;7.50;;;;;;;-5.69;95.82;101171.09;5107252;28;20047;-69
2020/12/11 08:25:30;;;;;;;16.02;7.18;;;;;;;-5.69;95.77;101171.09;5097221;28;20075;-71
2020/12/11 08:28:17;;;;;;;13.93;7.25;;;;;;;-5.66;95.82;101176.22;5108467;28;20138;-69
2020/12/11 08:31:19;;;;;;;15.32;7.63;;;;;;;-5.70;95.70;101175.34;5108648;28;20044;-70
2020/12/11 08:34:09;;;;;;;17.95;8.35;;;;;;;-5.64;95.69;101184.75;5109540;28;20120;-69
2020/12/11 08:37:03;;;;;;;14.60;6.85;;;;;;;-5.66;95.72;101179.59;5109630;28;20048;-70
2020/12/11 08:39:49;;;;;;;;;;;;;;;-5.67;95.36;101180.47;5108142;28;20043;-72
2020/12/11 08:42:50;;;;;;;14.77;6.50;;;;;;;-5.73;95.56;101171.91;5110077;28;19919;-70
2020/12/11 08:51:54;;;;;;;19.73;6.47;;;;;;;-5.68;95.50;101177.91;5108989;28;20047;-69
2020/12/11 08:54:40;;;;;;;11.45;6.30;;;;;;;-5.68;95.30;101178.75;5110063;28;20047;-70
2020/12/11 08:57:31;;;;;;;12.55;7.40;;;;;;;-5.62;95.13;101172.84;5109397;28;20491;-69
2020/12/11 09:00:17;;;;;;;12.68;6.63;;;;;;;-5.60;95.08;101167.75;5109444;28;20052;-70
2020/12/11 09:03:04;;;;;;;11.93;6.93;;;;;;;-5.60;95.65;101160.13;5109544;28;20134;-69
2020/12/11 09:05:50;;;;;;;14.70;6.70;;;;;;;-5.55;94.93;101163.59;5095673;28;20039;-68
2020/12/11 09:08:39;;;;;;;16.17;7.72;;;;;;;-5.55;95.36;101151.69;5109667;28;20100;-71
2020/12/11 09:11:25;;;;;;;13.57;6.60;;;;;;;-5.50;95.30;101156.84;5109490;28;20555;-72
2020/12/11 09:14:12;;;;;;;12.85;7.20;;;;;;;-5.50;95.20;101154.28;5109241;28;20105;-72
2020/12/11 09:16:58;;;;;;;13.50;7.30;;;;;;;-5.48;95.07;101150.91;5108850;28;20456;-71
2020/12/11 09:19:45;;;;;;;17.13;7.15;;;;;;;-5.49;94.81;101141.53;5109502;28;20059;-68
2020/12/11 09:22:32;;;;;;;13.07;6.40;;;;;;;-5.42;94.42;101143.28;5109141;28;20104;-69
2020/12/11 09:25:19;;;;;;;13.05;6.00;;;;;;;-5.41;94.84;101145.03;5109206;28;20175;-70
2020/12/11 09:28:12;;;;;;;12.70;6.25;;;;;;;-5.43;94.89;101141.59;5106891;28;20456;-69
2020/12/11 09:30:58;;;;;;;11.88;5.88;;;;;;;-5.37;94.26;101130.56;5106239;28;20067;-71
2020/12/11 09:33:45;;;;;;;11.20;6.43;;;;;;;-5.34;94.40;101133.16;5109394;28;20043;-70
2020/12/11 09:36:31;;;;;;;14.32;7.80;;;;;;;-5.28;94.00;101130.66;5107737;28;20044;-68
2020/12/11 09:39:18;;;;;;;12.05;5.93;;;;;;;-5.27;93.85;101126.41;5108572;28;20056;-68
2020/12/11 09:42:25;;;;;;;14.43;7.20;;;;;;;-5.28;94.00;101135.75;5110091;28;20088;-69
2020/12/11 09:45:22;;;;;;;11.95;6.05;;;;;;;-5.25;94.46;101132.38;5111537;28;20108;-70
2020/12/11 09:48:17;;;;;;;12.00;6.22;;;;;;;-5.23;94.69;101123.88;5112478;28;20567;-70
2020/12/11 09:51:13;;;;;;;15.25;7.68;;;;;;;-5.27;94.19;101119.63;5111691;28;20077;-68
2020/12/11 09:54:23;;;;;;;15.52;7.60;;;;;;;-5.29;94.30;101120.44;5112548;28;20055;-70
2020/12/11 09:57:09;;;;;;;12.23;7.15;;;;;;;-5.24;93.80;101113.69;5097464;28;20065;-70
2020/12/11 09:59:58;;;;;;;17.75;8.05;;;;;;;-5.25;93.66;101109.44;5112535;28;20444;-72
2020/12/11 10:02:58;;;;;;;13.88;7.50;;;;;;;-5.28;94.10;101107.69;5113259;28;20047;-69
2020/12/11 10:05:45;;;;;;;11.75;7.13;;;;;;;-5.30;94.42;101104.31;5113192;28;20054;-71
2020/12/11 10:08:31;;;;;;;12.40;6.47;;;;;;;-5.25;94.34;101104.34;5112935;28;20043;-72
2020/12/11 10:11:20;;;;;;;10.07;5.78;;;;;;;-5.19;93.92;101102.66;5111855;28;20074;-69
2020/12/11 10:17:14;;;;;;;12.13;5.97;;;;;;;-5.14;93.66;101095.03;5112340;28;20051;-67
2020/12/11 10:20:00;;;;;;;12.35;6.85;;;;;;;-5.16;93.66;101089.94;5111947;28;20048;-70
2020/12/11 10:22:48;;;;;;;13.88;6.80;;;;;;;-5.15;94.01;101089.09;5112478;28;20402;-72
2020/12/11 10:25:38;;;;;;;14.80;7.95;;;;;;;-5.16;93.46;101091.66;5112783;28;20101;-70
2020/12/11 10:28:25;;;;;;;12.40;7.13;;;;;;;-5.17;94.02;101093.34;5112383;28;20051;-69
2020/12/11 10:31:11;;;;;;;14.32;7.57;;;;;;;-5.12;93.51;101093.38;5112495;28;20056;-69
2020/12/11 10:33:58;;;;;;;14.02;7.95;;;;;;;-5.16;93.27;101091.66;5112340;28;20075;-71
2020/12/11 10:36:45;;;;;;;13.35;7.45;;;;;;;-5.19;93.41;101094.16;5124656;28;20043;-68
2020/12/11 10:39:31;;;;;;;15.65;8.20;;;;;;;-5.25;93.29;101083.94;5110959;28;20048;-71
2020/12/11 10:42:18;;;;;;;13.82;7.32;;;;;;;-5.23;93.11;101088.19;5111148;28;20065;-71
2020/12/11 10:45:04;;;;;;;13.10;6.57;;;;;;;-5.24;93.05;101089.03;5111189;28;20054;-68
2020/12/11 10:47:50;;;;;;;11.95;7.20;;;;;;;-5.25;92.81;101082.25;5110160;28;20047;-69
2020/12/11 10:50:37;;;;;;;14.30;6.72;;;;;;;-5.27;92.72;101081.38;5096575;28;20122;-70
2020/12/11 10:53:23;;;;;;;11.82;6.32;;;;;;;-5.31;93.18;101082.22;5107568;28;20040;-69
2020/12/11 10:56:10;;;;;;;13.15;7.18;;;;;;;-5.33;92.76;101083.88;5110336;28;20116;-69
2020/12/11 10:58:57;;;;;;;14.27;7.57;;;;;;;-5.33;92.83;101094.06;5110564;28;20423;-72
2020/12/11 11:01:43;;;;;;;13.98;7.45;;;;;;;-5.36;92.78;101094.06;5110714;28;20140;-68
2020/12/11 11:04:30;;;;;;;12.15;6.70;;;;;;;-5.40;92.73;101089.78;5110673;28;20567;-71
2020/12/11 11:07:26;;;;;;;10.48;6.80;;;;;;;-5.43;92.35;101089.75;5110501;28;20044;-69
2020/12/11 11:10:16;;;;;;;10.65;6.13;;;;;;;-5.45;92.23;101094.84;5110357;28;20055;-69
2020/12/11 11:13:19;;;;;;;12.07;7.00;;;;;;;-5.49;92.53;101084.63;5108313;28;20044;-71
2020/12/11 11:16:05;;;;;;;12.50;7.13;;;;;;;-5.49;92.76;101077.00;5110122;28;20039;-72
2020/12/11 11:18:57;;;;;;;10.75;6.20;;;;;;;-5.48;92.48;101076.13;5124665;28;20402;-72
2020/12/11 11:21:57;;;;;;;12.43;6.32;;;;;;;-5.49;92.60;101080.38;5108013;28;20101;-69
2020/12/11 11:28:03;;;;;;;13.65;7.25;;;;;;;-5.47;92.95;101081.25;5083479;28;20668;-68
2020/12/11 11:30:49;;;;;;;11.45;6.70;;;;;;;-5.48;92.80;101078.69;5109965;28;20501;-70
2020/12/11 11:33:35;;;;;;;13.02;7.05;;;;;;;-5.49;92.60;101072.75;5110654;28;20093;-71
2020/12/11 11:36:22;;;;;;;11.77;6.65;;;;;;;-5.50;92.23;101077.84;5083783;28;756987;-69
2020/12/11 11:39:08;;;;;;;14.43;7.30;;;;;;;-5.53;91.83;101080.34;5111263;28;20059;-69
2020/12/11 11:41:56;;;;;;;15.13;8.23;;;;;;;-5.57;92.26;101073.53;5111314;28;20083;-68
2020/12/11 11:44:58;;;;;;;14.18;7.28;;;;;;;-5.61;92.44;101077.75;5111027;28;20047;-71
2020/12/11 11:47:50;;;;;;;13.68;7.15;;;;;;;-5.61;92.74;101079.44;5096291;28;20048;-69
2020/12/11 11:53:23;;;;;;;12.10;7.45;;;;;;;-5.70;92.35;101067.47;5110859;28;20394;-71
2020/12/11 11:56:09;;;;;;;11.75;6.95;;;;;;;-5.75;91.97;101070.00;5110996;28;20140;-71
2020/12/11 11:58:56;;;;;;;11.85;6.43;;;;;;;-5.80;91.99;101071.66;5110938;28;20147;-73
2020/12/11 12:01:42;;;;;;;13.48;6.72;;;;;;;-5.83;91.86;101076.75;5125083;27;20039;-71
2020/12/11 12:04:29;;;;;;;11.40;6.38;;;;;;;-5.93;92.31;101077.53;5109652;28;20055;-72
2020/12/11 12:07:15;;;;;;;10.32;5.95;;;;;;;-5.96;91.64;101085.13;5107767;28;20059;-71
2020/12/11 12:10:08;;;;;;;11.45;5.80;;;;;;;-6.05;91.53;101085.91;5125047;27;20052;-69
2020/12/11 12:12:55;;;;;;;11.68;5.72;;;;;;;-6.12;92.28;101089.25;5110618;28;20051;-72
2020/12/11 12:15:41;;;;;;;8.48;5.05;;;;;;;-6.18;91.72;101087.47;5110028;28;20055;-71
2020/12/11 12:18:28;;;;;;;14.68;5.90;;;;;;;-6.23;91.99;101084.03;5109824;28;20048;-72
2020/12/11 12:30:30;;;;;;;8.98;4.85;;;;;;;-6.41;92.21;101085.53;5109525;28;20059;-71
2020/12/11 12:45:10;;;;;;;9.93;5.18;;;;;;;-6.59;92.27;101074.34;5109809;28;20079;-69
2020/12/11 12:47:56;;;;;;;8.77;4.68;;;;;;;-6.59;91.90;101078.56;5109116;28;20453;-71
2020/12/11 12:50:43;;;;;;;9.20;4.63;;;;;;;-6.62;91.94;101070.91;5109904;28;20521;-70
2020/12/11 12:53:33;;;;;;;8.57;4.88;;;;;;;-6.60;91.86;101070.06;5109910;28;20051;-69
2020/12/11 13:05:09;;;;;;;13.15;6.93;;;;;;;-6.70;92.17;101048.75;5109705;28;20039;-70
2020/12/11 13:07:56;;;;;;;8.52;5.28;;;;;;;-6.63;92.41;101046.31;5109753;28;20104;-70
2020/12/11 13:10:42;;;;;;;10.68;5.30;;;;;;;-6.62;92.50;101046.31;5109768;28;20464;-68
2020/12/11 13:13:29;;;;;;;8.73;4.70;;;;;;;-6.59;92.67;101041.28;5109641;28;20138;-71
2020/12/11 13:16:15;;;;;;;11.88;6.45;;;;;;;-6.59;92.49;101040.41;5108799;28;20073;-67
2020/12/11 13:19:02;;;;;;;11.32;6.05;;;;;;;-6.57;92.34;101041.28;5109201;28;20096;-72
2020/12/11 13:27:50;;;;;;;10.75;5.72;;;;;;;-6.42;93.04;101043.13;5109282;28;20047;-69
2020/12/11 13:30:36;;;;;;;13.93;6.25;;;;;;;-6.39;92.73;101051.66;5108970;28;20064;-70
2020/12/11 13:33:24;;;;;;;12.73;6.07;;;;;;;-6.34;92.71;101038.97;5108908;28;20563;-72
2020/12/11 13:36:11;;;;;;;11.10;6.07;;;;;;;-6.29;92.66;101039.88;5109267;28;20571;-69
2020/12/11 13:38:57;;;;;;;10.88;6.45;;;;;;;-6.25;93.34;101036.50;5109128;28;20048;-70
2020/12/11 13:41:43;;;;;;;12.57;6.40;;;;;;;-6.26;92.85;101040.75;5106745;28;20696;-69